sensor_id;sensor_type;location;lat;lon;timestamp;pressure;altitude;pressure_sealevel;temperature
62845;BMP280;48929;47.910;20.390;2023-05-29T00:01:41;99389.34;;;14.82
62845;BMP280;48929;47.910;20.390;2023-05-29T00:04:19;99396.53;;;14.76
62845;BMP280;48929;47.910;20.390;2023-05-29T00:07:33;99387.78;;;14.64
62845;BMP280;48929;47.910;20.390;2023-05-29T00:10:10;99385.31;;;14.58
62845;BMP280;48929;47.910;20.390;2023-05-29T00:12:44;99397.56;;;14.67
62845;BMP280;48929;47.910;20.390;2023-05-29T00:15:24;99379.97;;;14.55
62845;BMP280;48929;47.910;20.390;2023-05-29T00:18:01;99383.31;;;14.47
62845;BMP280;48929;47.910;20.390;2023-05-29T00:20:35;99385.78;;;14.52
62845;BMP280;48929;47.910;20.390;2023-05-29T00:27:52;99378.19;;;14.33
62845;BMP280;48929;47.910;20.390;2023-05-29T00:35:10;99372.25;;;14.24
62845;BMP280;48929;47.910;20.390;2023-05-29T00:38:32;99390.03;;;14.17
62845;BMP280;48929;47.910;20.390;2023-05-29T00:41:48;99401.09;;;14.31
62845;BMP280;48929;47.910;20.390;2023-05-29T00:45:06;99374.84;;;14.24
62845;BMP280;48929;47.910;20.390;2023-05-29T00:48:08;99395.41;;;14.29
62845;BMP280;48929;47.910;20.390;2023-05-29T00:51:12;99391.72;;;14.22
62845;BMP280;48929;47.910;20.390;2023-05-29T00:53:53;99390.22;;;14.29
62845;BMP280;48929;47.910;20.390;2023-05-29T00:57:09;99379.16;;;14.37
62845;BMP280;48929;47.910;20.390;2023-05-29T01:00:25;99373.13;;;14.20
62845;BMP280;48929;47.910;20.390;2023-05-29T01:03:32;99393.13;;;14.28
62845;BMP280;48929;47.910;20.390;2023-05-29T01:06:07;99385.97;;;14.25
62845;BMP280;48929;47.910;20.390;2023-05-29T01:09:00;99392.47;;;14.13
62845;BMP280;48929;47.910;20.390;2023-05-29T01:11:59;99391.38;;;14.14
62845;BMP280;48929;47.910;20.390;2023-05-29T01:18:34;99377.19;;;14.12
62845;BMP280;48929;47.910;20.390;2023-05-29T01:21:37;99383.84;;;14.27
62845;BMP280;48929;47.910;20.390;2023-05-29T01:25:04;99380.91;;;14.28
62845;BMP280;48929;47.910;20.390;2023-05-29T01:28:42;99373.31;;;14.23
62845;BMP280;48929;47.910;20.390;2023-05-29T01:31:37;99391.00;;;14.30
62845;BMP280;48929;47.910;20.390;2023-05-29T01:34:19;99380.50;;;14.35
62845;BMP280;48929;47.910;20.390;2023-05-29T01:37:00;99389.94;;;14.31
62845;BMP280;48929;47.910;20.390;2023-05-29T01:39:52;99384.75;;;14.31
62845;BMP280;48929;47.910;20.390;2023-05-29T01:42:54;99379.25;;;14.32
62845;BMP280;48929;47.910;20.390;2023-05-29T01:45:56;99377.91;;;14.35
62845;BMP280;48929;47.910;20.390;2023-05-29T01:48:56;99373.31;;;14.23
62845;BMP280;48929;47.910;20.390;2023-05-29T01:55:14;99383.38;;;14.25
62845;BMP280;48929;47.910;20.390;2023-05-29T01:58:04;99378.91;;;14.16
62845;BMP280;48929;47.910;20.390;2023-05-29T02:00:35;99377.56;;;14.28
62845;BMP280;48929;47.910;20.390;2023-05-29T02:03:28;99381.69;;;14.29
62845;BMP280;48929;47.910;20.390;2023-05-29T02:06:09;99358.16;;;14.16
62845;BMP280;48929;47.910;20.390;2023-05-29T02:08:38;99365.59;;;14.09
62845;BMP280;48929;47.910;20.390;2023-05-29T02:11:13;99369.94;;;14.23
62845;BMP280;48929;47.910;20.390;2023-05-29T02:13:42;99368.78;;;14.06
62845;BMP280;48929;47.910;20.390;2023-05-29T02:16:29;99349.25;;;14.00
62845;BMP280;48929;47.910;20.390;2023-05-29T02:19:11;99361.66;;;14.12
62845;BMP280;48929;47.910;20.390;2023-05-29T02:21:52;99357.22;;;14.12
62845;BMP280;48929;47.910;20.390;2023-05-29T02:25:10;99361.47;;;14.08
62845;BMP280;48929;47.910;20.390;2023-05-29T02:28:10;99339.97;;;14.08
62845;BMP280;48929;47.910;20.390;2023-05-29T02:31:12;99350.09;;;14.18
62845;BMP280;48929;47.910;20.390;2023-05-29T02:34:05;99354.09;;;14.24
62845;BMP280;48929;47.910;20.390;2023-05-29T02:37:47;99338.97;;;14.18
62845;BMP280;48929;47.910;20.390;2023-05-29T02:40:48;99338.69;;;14.19
62845;BMP280;48929;47.910;20.390;2023-05-29T02:51:46;99329.72;;;14.34
62845;BMP280;48929;47.910;20.390;2023-05-29T03:02:01;99338.34;;;14.60
62845;BMP280;48929;47.910;20.390;2023-05-29T03:05:01;99338.03;;;14.61
62845;BMP280;48929;47.910;20.390;2023-05-29T03:07:58;99327.03;;;14.47
62845;BMP280;48929;47.910;20.390;2023-05-29T03:11:43;99326.56;;;14.45
62845;BMP280;48929;47.910;20.390;2023-05-29T03:15:28;99327.47;;;14.41
62845;BMP280;48929;47.910;20.390;2023-05-29T03:23:18;99335.88;;;14.46
62845;BMP280;48929;47.910;20.390;2023-05-29T06:04:42;99434.44;;;17.65
62845;BMP280;48929;47.910;20.390;2023-05-29T06:08:44;99426.09;;;17.71
62845;BMP280;48929;47.910;20.390;2023-05-29T07:19:00;99443.47;;;19.68
62845;BMP280;48929;47.910;20.390;2023-05-29T07:21:35;99442.81;;;19.72
62845;BMP280;48929;47.910;20.390;2023-05-29T07:24:34;99435.38;;;19.74
62845;BMP280;48929;47.910;20.390;2023-05-29T07:27:40;99438.34;;;19.88
62845;BMP280;48929;47.910;20.390;2023-05-29T07:30:41;99442.03;;;20.02
62845;BMP280;48929;47.910;20.390;2023-05-29T07:33:51;99445.84;;;20.21
62845;BMP280;48929;47.910;20.390;2023-05-29T07:40:16;99440.94;;;20.35
62845;BMP280;48929;47.910;20.390;2023-05-29T07:43:25;99437.72;;;20.41
62845;BMP280;48929;47.910;20.390;2023-05-29T07:49:15;99446.72;;;20.59
62845;BMP280;48929;47.910;20.390;2023-05-29T07:51:12;99453.81;;;20.78
62845;BMP280;48929;47.910;20.390;2023-05-29T07:54:45;99453.69;;;20.90
62845;BMP280;48929;47.910;20.390;2023-05-29T08:01:52;99459.16;;;21.20
62845;BMP280;48929;47.910;20.390;2023-05-29T08:04:52;99463.75;;;21.46
62845;BMP280;48929;47.910;20.390;2023-05-29T08:07:31;99459.16;;;21.62
62845;BMP280;48929;47.910;20.390;2023-05-29T08:10:38;99463.25;;;21.82
62845;BMP280;48929;47.910;20.390;2023-05-29T08:13:37;99457.13;;;21.97
62845;BMP280;48929;47.910;20.390;2023-05-29T08:16:14;99455.41;;;22.08
62845;BMP280;48929;47.910;20.390;2023-05-29T08:19:00;99445.19;;;22.03
62845;BMP280;48929;47.910;20.390;2023-05-29T08:21:35;99455.97;;;22.21
62845;BMP280;48929;47.910;20.390;2023-05-29T08:29:16;99455.34;;;22.31
62845;BMP280;48929;47.910;20.390;2023-05-29T08:32:21;99450.69;;;22.17
62845;BMP280;48929;47.910;20.390;2023-05-29T08:35:39;99458.69;;;22.28
62845;BMP280;48929;47.910;20.390;2023-05-29T08:42:29;99455.81;;;22.37
62845;BMP280;48929;47.910;20.390;2023-05-29T08:43:34;99446.69;;;22.31
62845;BMP280;48929;47.910;20.390;2023-05-29T08:47:18;99434.31;;;22.28
62845;BMP280;48929;47.910;20.390;2023-05-29T08:50:26;99447.59;;;22.42
62845;BMP280;48929;47.910;20.390;2023-05-29T08:53:17;99437.00;;;22.35
62845;BMP280;48929;47.910;20.390;2023-05-29T08:55:53;99427.53;;;22.27
62845;BMP280;48929;47.910;20.390;2023-05-29T08:58:26;99446.47;;;22.39
62845;BMP280;48929;47.910;20.390;2023-05-29T09:01:01;99434.09;;;22.40
62845;BMP280;48929;47.910;20.390;2023-05-29T09:03:35;99434.84;;;22.40
62845;BMP280;48929;47.910;20.390;2023-05-29T09:06:22;99445.13;;;22.52
62845;BMP280;48929;47.910;20.390;2023-05-29T09:09:15;99447.44;;;22.57
62845;BMP280;48929;47.910;20.390;2023-05-29T09:12:05;99446.47;;;22.69
62845;BMP280;48929;47.910;20.390;2023-05-29T09:14:36;99447.66;;;22.75
62845;BMP280;48929;47.910;20.390;2023-05-29T09:17:05;99439.09;;;22.78
62845;BMP280;48929;47.910;20.390;2023-05-29T09:19:58;99440.28;;;22.88
62845;BMP280;48929;47.910;20.390;2023-05-29T09:22:31;99429.53;;;23.00
62845;BMP280;48929;47.910;20.390;2023-05-29T09:25:04;99430.78;;;23.13
62845;BMP280;48929;47.910;20.390;2023-05-29T09:27:41;99442.25;;;23.31
62845;BMP280;48929;47.910;20.390;2023-05-29T09:30:11;99430.56;;;23.29
62845;BMP280;48929;47.910;20.390;2023-05-29T09:32:41;99425.38;;;23.39
62845;BMP280;48929;47.910;20.390;2023-05-29T09:35:19;99428.88;;;23.50
62845;BMP280;48929;47.910;20.390;2023-05-29T09:37:50;99433.09;;;23.62
62845;BMP280;48929;47.910;20.390;2023-05-29T09:40:19;99430.88;;;23.67
62845;BMP280;48929;47.910;20.390;2023-05-29T09:42:48;99429.47;;;23.77
62845;BMP280;48929;47.910;20.390;2023-05-29T09:45:17;99421.97;;;23.86
62845;BMP280;48929;47.910;20.390;2023-05-29T09:47:53;99420.13;;;23.90
62845;BMP280;48929;47.910;20.390;2023-05-29T09:50:36;99426.59;;;24.03
62845;BMP280;48929;47.910;20.390;2023-05-29T09:53:49;99418.72;;;24.07
62845;BMP280;48929;47.910;20.390;2023-05-29T10:00:23;99424.50;;;24.30
62845;BMP280;48929;47.910;20.390;2023-05-29T10:02:55;99431.72;;;24.51
62845;BMP280;48929;47.910;20.390;2023-05-29T10:05:27;99400.84;;;24.44
62845;BMP280;48929;47.910;20.390;2023-05-29T10:07:56;99409.91;;;24.54
62845;BMP280;48929;47.910;20.390;2023-05-29T10:10:25;99426.16;;;24.66
62845;BMP280;48929;47.910;20.390;2023-05-29T10:12:56;99412.22;;;24.69
62845;BMP280;48929;47.910;20.390;2023-05-29T10:15:26;99399.78;;;24.56
62845;BMP280;48929;47.910;20.390;2023-05-29T10:18:34;99404.31;;;24.73
62845;BMP280;48929;47.910;20.390;2023-05-29T10:24:59;99394.97;;;25.07
62845;BMP280;48929;47.910;20.390;2023-05-29T10:28:06;99408.88;;;25.29
62845;BMP280;48929;47.910;20.390;2023-05-29T10:30:57;99387.03;;;25.25
62845;BMP280;48929;47.910;20.390;2023-05-29T10:33:56;99404.00;;;25.38
62845;BMP280;48929;47.910;20.390;2023-05-29T10:36:42;99397.94;;;25.55
62845;BMP280;48929;47.910;20.390;2023-05-29T10:39:21;99384.00;;;25.55
62845;BMP280;48929;47.910;20.390;2023-05-29T10:42:44;99375.69;;;25.56
62845;BMP280;48929;47.910;20.390;2023-05-29T10:45:49;99375.69;;;25.63
62845;BMP280;48929;47.910;20.390;2023-05-29T10:48:49;99374.13;;;25.66
62845;BMP280;48929;47.910;20.390;2023-05-29T10:51:29;99380.94;;;25.74
62845;BMP280;48929;47.910;20.390;2023-05-29T10:54:01;99377.13;;;25.89
62845;BMP280;48929;47.910;20.390;2023-05-29T10:56:29;99379.72;;;25.99
62845;BMP280;48929;47.910;20.390;2023-05-29T10:59:00;99391.78;;;26.11
62845;BMP280;48929;47.910;20.390;2023-05-29T11:01:46;99374.06;;;26.01
62845;BMP280;48929;47.910;20.390;2023-05-29T11:04:29;99371.84;;;25.89
62845;BMP280;48929;47.910;20.390;2023-05-29T11:07:01;99379.81;;;25.78
62845;BMP280;48929;47.910;20.390;2023-05-29T11:09:34;99390.41;;;25.57
62845;BMP280;48929;47.910;20.390;2023-05-29T11:12:25;99410.41;;;25.58
62845;BMP280;48929;47.910;20.390;2023-05-29T11:19:49;99445.69;;;24.62
62845;BMP280;48929;47.910;20.390;2023-05-29T11:22:41;99441.03;;;24.23
62845;BMP280;48929;47.910;20.390;2023-05-29T11:25:37;99422.09;;;24.04
62845;BMP280;48929;47.910;20.390;2023-05-29T11:28:24;99422.41;;;23.92
62845;BMP280;48929;47.910;20.390;2023-05-29T11:34:22;99429.13;;;23.89
62845;BMP280;48929;47.910;20.390;2023-05-29T11:36:59;99412.66;;;23.96
62845;BMP280;48929;47.910;20.390;2023-05-29T11:39:35;99430.09;;;24.21
62845;BMP280;48929;47.910;20.390;2023-05-29T11:42:04;99407.84;;;24.15
62845;BMP280;48929;47.910;20.390;2023-05-29T11:46:48;99413.50;;;24.14
62845;BMP280;48929;47.910;20.390;2023-05-29T11:47:56;99387.16;;;24.17
62845;BMP280;48929;47.910;20.390;2023-05-29T11:50:30;99386.44;;;24.20
62845;BMP280;48929;47.910;20.390;2023-05-29T11:53:02;99395.91;;;24.32
62845;BMP280;48929;47.910;20.390;2023-05-29T11:55:34;99390.63;;;24.35
62845;BMP280;48929;47.910;20.390;2023-05-29T11:58:06;99388.75;;;24.40
62845;BMP280;48929;47.910;20.390;2023-05-29T12:00:47;99377.53;;;24.57
62845;BMP280;48929;47.910;20.390;2023-05-29T12:03:18;99374.53;;;24.62
62845;BMP280;48929;47.910;20.390;2023-05-29T12:05:49;99386.25;;;24.82
62845;BMP280;48929;47.910;20.390;2023-05-29T12:08:24;99378.38;;;25.00
62845;BMP280;48929;47.910;20.390;2023-05-29T12:10:56;99381.38;;;25.09
62845;BMP280;48929;47.910;20.390;2023-05-29T12:13:25;99358.00;;;24.97
62845;BMP280;48929;47.910;20.390;2023-05-29T12:16:07;99369.69;;;24.81
62845;BMP280;48929;47.910;20.390;2023-05-29T12:18:36;99394.91;;;24.79
62845;BMP280;48929;47.910;20.390;2023-05-29T12:21:07;99379.06;;;24.61
62845;BMP280;48929;47.910;20.390;2023-05-29T12:23:38;99388.13;;;24.74
62845;BMP280;48929;47.910;20.390;2023-05-29T12:26:10;99374.91;;;24.60
62845;BMP280;48929;47.910;20.390;2023-05-29T12:28:42;99393.69;;;24.45
62845;BMP280;48929;47.910;20.390;2023-05-29T12:31:11;99372.16;;;24.25
62845;BMP280;48929;47.910;20.390;2023-05-29T12:33:46;99378.16;;;24.18
62845;BMP280;48929;47.910;20.390;2023-05-29T12:36:15;99387.47;;;23.98
62845;BMP280;48929;47.910;20.390;2023-05-29T12:38:50;99363.25;;;23.75
62845;BMP280;48929;47.910;20.390;2023-05-29T12:41:29;99359.97;;;23.89
62845;BMP280;48929;47.910;20.390;2023-05-29T12:44:03;99356.97;;;23.97
62845;BMP280;48929;47.910;20.390;2023-05-29T12:46:37;99374.34;;;24.05
62845;BMP280;48929;47.910;20.390;2023-05-29T12:49:13;99354.81;;;24.17
62845;BMP280;48929;47.910;20.390;2023-05-29T12:51:45;99365.59;;;23.87
62845;BMP280;48929;47.910;20.390;2023-05-29T12:54:47;99349.03;;;23.83
62845;BMP280;48929;47.910;20.390;2023-05-29T12:57:33;99344.91;;;23.89
62845;BMP280;48929;47.910;20.390;2023-05-29T13:01:05;99347.63;;;24.10
62845;BMP280;48929;47.910;20.390;2023-05-29T13:03:48;99338.69;;;24.29
62845;BMP280;48929;47.910;20.390;2023-05-29T13:06:24;99343.66;;;24.52
62845;BMP280;48929;47.910;20.390;2023-05-29T13:09:21;99340.28;;;24.58
62845;BMP280;48929;47.910;20.390;2023-05-29T13:12:03;99344.06;;;24.78
62845;BMP280;48929;47.910;20.390;2023-05-29T13:14:33;99329.78;;;24.83
62845;BMP280;48929;47.910;20.390;2023-05-29T13:17:34;99325.63;;;25.07
62845;BMP280;48929;47.910;20.390;2023-05-29T13:20:13;99313.91;;;25.15
62845;BMP280;48929;47.910;20.390;2023-05-29T13:22:44;99294.72;;;25.07
62845;BMP280;48929;47.910;20.390;2023-05-29T13:25:14;99319.94;;;25.19
62845;BMP280;48929;47.910;20.390;2023-05-29T13:27:46;99301.09;;;25.27
62845;BMP280;48929;47.910;20.390;2023-05-29T13:30:18;99299.19;;;25.38
62845;BMP280;48929;47.910;20.390;2023-05-29T13:33:24;99256.56;;;25.51
62845;BMP280;48929;47.910;20.390;2023-05-29T13:36:47;99279.47;;;25.75
62845;BMP280;48929;47.910;20.390;2023-05-29T13:40:38;99253.00;;;25.89
62845;BMP280;48929;47.910;20.390;2023-05-29T14:00:18;99216.59;;;26.62
62845;BMP280;48929;47.910;20.390;2023-05-29T14:03:25;99241.69;;;26.88
62845;BMP280;48929;47.910;20.390;2023-05-29T14:09:33;99233.47;;;27.12
62845;BMP280;48929;47.910;20.390;2023-05-29T14:12:41;99248.78;;;27.28
62845;BMP280;48929;47.910;20.390;2023-05-29T14:16:23;99248.28;;;27.40
62845;BMP280;48929;47.910;20.390;2023-05-29T14:19:56;99236.03;;;27.50
62845;BMP280;48929;47.910;20.390;2023-05-29T14:22:54;99254.59;;;27.46
62845;BMP280;48929;47.910;20.390;2023-05-29T14:26:12;99262.53;;;27.46
62845;BMP280;48929;47.910;20.390;2023-05-29T14:29:15;99201.50;;;27.30
62845;BMP280;48929;47.910;20.390;2023-05-29T14:37:20;99240.09;;;27.28
62845;BMP280;48929;47.910;20.390;2023-05-29T14:41:46;99211.97;;;27.41
62845;BMP280;48929;47.910;20.390;2023-05-29T14:44:52;99211.25;;;27.37
62845;BMP280;48929;47.910;20.390;2023-05-29T14:48:13;99217.16;;;27.48
62845;BMP280;48929;47.910;20.390;2023-05-29T14:51:03;99226.13;;;27.57
62845;BMP280;48929;47.910;20.390;2023-05-29T14:54:10;99222.22;;;27.65
62845;BMP280;48929;47.910;20.390;2023-05-29T14:56:48;99230.53;;;27.67
62845;BMP280;48929;47.910;20.390;2023-05-29T15:00:10;99222.19;;;27.69
62845;BMP280;48929;47.910;20.390;2023-05-29T15:03:19;99214.13;;;27.76
62845;BMP280;48929;47.910;20.390;2023-05-29T15:06:32;99215.84;;;27.63
62845;BMP280;48929;47.910;20.390;2023-05-29T15:10:14;99225.53;;;27.73
62845;BMP280;48929;47.910;20.390;2023-05-29T15:13:06;99234.09;;;27.81
62845;BMP280;48929;47.910;20.390;2023-05-29T15:15:51;99221.66;;;27.77
62845;BMP280;48929;47.910;20.390;2023-05-29T15:18:48;99227.72;;;27.78
62845;BMP280;48929;47.910;20.390;2023-05-29T15:22:03;99212.63;;;27.48
62845;BMP280;48929;47.910;20.390;2023-05-29T15:25:01;99221.88;;;27.63
62845;BMP280;48929;47.910;20.390;2023-05-29T15:27:30;99235.88;;;27.64
62845;BMP280;48929;47.910;20.390;2023-05-29T15:30:19;99232.81;;;27.65
62845;BMP280;48929;47.910;20.390;2023-05-29T15:33:26;99228.00;;;27.57
62845;BMP280;48929;47.910;20.390;2023-05-29T15:36:18;99236.22;;;27.36
62845;BMP280;48929;47.910;20.390;2023-05-29T15:39:06;99233.78;;;27.18
62845;BMP280;48929;47.910;20.390;2023-05-29T15:42:11;99239.88;;;27.15
62845;BMP280;48929;47.910;20.390;2023-05-29T15:45:02;99228.63;;;27.07
62845;BMP280;48929;47.910;20.390;2023-05-29T15:47:46;99231.41;;;26.93
62845;BMP280;48929;47.910;20.390;2023-05-29T15:50:29;99208.50;;;26.39
62845;BMP280;48929;47.910;20.390;2023-05-29T15:53:19;99221.22;;;26.51
62845;BMP280;48929;47.910;20.390;2023-05-29T15:56:05;99230.75;;;26.41
62845;BMP280;48929;47.910;20.390;2023-05-29T15:58:48;99225.88;;;26.40
62845;BMP280;48929;47.910;20.390;2023-05-29T16:01:37;99219.88;;;26.29
62845;BMP280;48929;47.910;20.390;2023-05-29T16:04:15;99216.94;;;26.20
62845;BMP280;48929;47.910;20.390;2023-05-29T16:07:02;99231.25;;;26.22
62845;BMP280;48929;47.910;20.390;2023-05-29T16:09:39;99213.63;;;26.09
62845;BMP280;48929;47.910;20.390;2023-05-29T16:12:20;99223.00;;;26.17
62845;BMP280;48929;47.910;20.390;2023-05-29T16:15:06;99232.09;;;26.12
62845;BMP280;48929;47.910;20.390;2023-05-29T16:17:43;99209.91;;;25.95
62845;BMP280;48929;47.910;20.390;2023-05-29T16:20:15;99213.31;;;25.96
62845;BMP280;48929;47.910;20.390;2023-05-29T16:23:02;99225.78;;;25.92
62845;BMP280;48929;47.910;20.390;2023-05-29T16:25:50;99229.97;;;25.89
62845;BMP280;48929;47.910;20.390;2023-05-29T16:28:50;99228.47;;;25.88
62845;BMP280;48929;47.910;20.390;2023-05-29T16:31:37;99238.66;;;25.86
62845;BMP280;48929;47.910;20.390;2023-05-29T16:34:28;99206.69;;;25.70
62845;BMP280;48929;47.910;20.390;2023-05-29T16:37:42;99233.09;;;25.70
62845;BMP280;48929;47.910;20.390;2023-05-29T16:40:45;99223.00;;;25.48
62845;BMP280;48929;47.910;20.390;2023-05-29T16:43:41;99239.94;;;25.57
62845;BMP280;48929;47.910;20.390;2023-05-29T16:46:37;99242.25;;;25.44
62845;BMP280;48929;47.910;20.390;2023-05-29T16:49:29;99223.06;;;25.30
62845;BMP280;48929;47.910;20.390;2023-05-29T16:57:21;99242.31;;;25.16
62845;BMP280;48929;47.910;20.390;2023-05-29T17:00:10;99250.59;;;25.22
62845;BMP280;48929;47.910;20.390;2023-05-29T17:03:19;99260.03;;;25.16
62845;BMP280;48929;47.910;20.390;2023-05-29T17:06:07;99251.38;;;25.08
62845;BMP280;48929;47.910;20.390;2023-05-29T17:09:08;99251.00;;;24.96
62845;BMP280;48929;47.910;20.390;2023-05-29T17:11:39;99246.88;;;24.91
62845;BMP280;48929;47.910;20.390;2023-05-29T17:14:47;99258.94;;;24.99
62845;BMP280;48929;47.910;20.390;2023-05-29T17:18:07;99273.22;;;24.95
62845;BMP280;48929;47.910;20.390;2023-05-29T17:20:57;99276.25;;;24.89
62845;BMP280;48929;47.910;20.390;2023-05-29T17:23:35;99266.50;;;24.79
62845;BMP280;48929;47.910;20.390;2023-05-29T17:26:52;99276.66;;;24.81
62845;BMP280;48929;47.910;20.390;2023-05-29T17:29:29;99290.56;;;24.71
62845;BMP280;48929;47.910;20.390;2023-05-29T17:32:23;99305.63;;;24.60
62845;BMP280;48929;47.910;20.390;2023-05-29T17:39:25;99287.81;;;24.07
62845;BMP280;48929;47.910;20.390;2023-05-29T17:51:15;99311.78;;;23.19
62845;BMP280;48929;47.910;20.390;2023-05-29T18:01:59;99331.16;;;22.64
62845;BMP280;48929;47.910;20.390;2023-05-29T18:08:35;99329.66;;;22.00
62845;BMP280;48929;47.910;20.390;2023-05-29T18:11:58;99325.53;;;21.99
62845;BMP280;48929;47.910;20.390;2023-05-29T18:15:07;99336.59;;;21.85
62845;BMP280;48929;47.910;20.390;2023-05-29T18:18:29;99337.63;;;21.54
62845;BMP280;48929;47.910;20.390;2023-05-29T18:21:20;99341.59;;;21.45
62845;BMP280;48929;47.910;20.390;2023-05-29T18:24:39;99339.38;;;21.47
62845;BMP280;48929;47.910;20.390;2023-05-29T18:31:36;99351.94;;;20.92
62845;BMP280;48929;47.910;20.390;2023-05-29T18:35:07;99357.38;;;20.84
62845;BMP280;48929;47.910;20.390;2023-05-29T18:38:24;99359.59;;;20.62
62845;BMP280;48929;47.910;20.390;2023-05-29T18:41:50;99355.19;;;20.47
62845;BMP280;48929;47.910;20.390;2023-05-29T18:45:15;99353.09;;;20.37
62845;BMP280;48929;47.910;20.390;2023-05-29T18:48:41;99366.28;;;20.25
62845;BMP280;48929;47.910;20.390;2023-05-29T18:52:00;99346.44;;;20.05
62845;BMP280;48929;47.910;20.390;2023-05-29T18:55:21;99363.25;;;19.88
62845;BMP280;48929;47.910;20.390;2023-05-29T18:58:41;99364.59;;;19.82
62845;BMP280;48929;47.910;20.390;2023-05-29T19:05:31;99362.63;;;19.48
62845;BMP280;48929;47.910;20.390;2023-05-29T19:10:12;99366.19;;;19.40
62845;BMP280;48929;47.910;20.390;2023-05-29T19:16:43;99380.31;;;19.23
62845;BMP280;48929;47.910;20.390;2023-05-29T19:19:52;99396.13;;;19.14
62845;BMP280;48929;47.910;20.390;2023-05-29T19:27:05;99390.41;;;18.97
62845;BMP280;48929;47.910;20.390;2023-05-29T19:30:48;99396.38;;;19.09
62845;BMP280;48929;47.910;20.390;2023-05-29T19:38:13;99411.72;;;19.11
62845;BMP280;48929;47.910;20.390;2023-05-29T19:56:50;99410.88;;;18.55
62845;BMP280;48929;47.910;20.390;2023-05-29T20:00:27;99413.25;;;18.48
62845;BMP280;48929;47.910;20.390;2023-05-29T20:04:16;99422.91;;;18.47
62845;BMP280;48929;47.910;20.390;2023-05-29T20:07:37;99443.16;;;18.38
62845;BMP280;48929;47.910;20.390;2023-05-29T20:12:26;99438.94;;;18.58
62845;BMP280;48929;47.910;20.390;2023-05-29T20:14:55;99443.00;;;18.83
62845;BMP280;48929;47.910;20.390;2023-05-29T20:18:20;99442.88;;;19.04
62845;BMP280;48929;47.910;20.390;2023-05-29T20:21:52;99440.13;;;19.12
62845;BMP280;48929;47.910;20.390;2023-05-29T20:25:07;99432.28;;;19.12
62845;BMP280;48929;47.910;20.390;2023-05-29T21:01:35;99424.41;;;18.85
62845;BMP280;48929;47.910;20.390;2023-05-29T21:22:03;99431.75;;;18.31
62845;BMP280;48929;47.910;20.390;2023-05-29T21:24:32;99440.44;;;18.35
62845;BMP280;48929;47.910;20.390;2023-05-29T21:27:01;99434.00;;;18.20
62845;BMP280;48929;47.910;20.390;2023-05-29T21:29:30;99437.94;;;18.14
62845;BMP280;48929;47.910;20.390;2023-05-29T21:31:59;99429.44;;;18.05
62845;BMP280;48929;47.910;20.390;2023-05-29T21:35:12;99426.41;;;18.03
62845;BMP280;48929;47.910;20.390;2023-05-29T21:37:46;99429.88;;;18.07
62845;BMP280;48929;47.910;20.390;2023-05-29T21:40:15;99423.78;;;18.03
62845;BMP280;48929;47.910;20.390;2023-05-29T21:42:46;99419.09;;;17.96
62845;BMP280;48929;47.910;20.390;2023-05-29T21:45:17;99416.69;;;17.79
62845;BMP280;48929;47.910;20.390;2023-05-29T21:47:47;99416.25;;;17.77
62845;BMP280;48929;47.910;20.390;2023-05-29T21:50:16;99416.44;;;17.72
62845;BMP280;48929;47.910;20.390;2023-05-29T21:52:47;99405.00;;;17.64
62845;BMP280;48929;47.910;20.390;2023-05-29T21:55:18;99405.25;;;17.59
62845;BMP280;48929;47.910;20.390;2023-05-29T21:57:50;99406.09;;;17.63
62845;BMP280;48929;47.910;20.390;2023-05-29T22:00:18;99408.59;;;17.60
62845;BMP280;48929;47.910;20.390;2023-05-29T22:02:54;99404.34;;;17.55
62845;BMP280;48929;47.910;20.390;2023-05-29T22:05:23;99401.28;;;17.53
62845;BMP280;48929;47.910;20.390;2023-05-29T22:07:54;99403.31;;;17.48
62845;BMP280;48929;47.910;20.390;2023-05-29T22:10:24;99401.69;;;17.43
62845;BMP280;48929;47.910;20.390;2023-05-29T22:12:54;99400.72;;;17.36
62845;BMP280;48929;47.910;20.390;2023-05-29T22:15:29;99397.13;;;17.19
62845;BMP280;48929;47.910;20.390;2023-05-29T22:18:00;99398.34;;;17.22
62845;BMP280;48929;47.910;20.390;2023-05-29T22:20:29;99399.09;;;17.22
62845;BMP280;48929;47.910;20.390;2023-05-29T22:23:03;99402.97;;;17.16
62845;BMP280;48929;47.910;20.390;2023-05-29T22:25:45;99401.47;;;17.15
62845;BMP280;48929;47.910;20.390;2023-05-29T22:28:20;99401.22;;;17.08
62845;BMP280;48929;47.910;20.390;2023-05-29T22:32:33;99385.50;;;16.96
62845;BMP280;48929;47.910;20.390;2023-05-29T22:38:49;99383.84;;;16.92
62845;BMP280;48929;47.910;20.390;2023-05-29T22:42:17;99379.88;;;16.94
62845;BMP280;48929;47.910;20.390;2023-05-29T22:46:37;99374.34;;;16.96
62845;BMP280;48929;47.910;20.390;2023-05-29T22:48:44;99375.63;;;17.10
62845;BMP280;48929;47.910;20.390;2023-05-29T22:51:37;99370.63;;;17.05
62845;BMP280;48929;47.910;20.390;2023-05-29T22:54:34;99365.44;;;16.97
62845;BMP280;48929;47.910;20.390;2023-05-29T22:57:21;99373.22;;;17.05
62845;BMP280;48929;47.910;20.390;2023-05-29T22:59:58;99356.25;;;16.99
62845;BMP280;48929;47.910;20.390;2023-05-29T23:02:35;99349.81;;;16.97
62845;BMP280;48929;47.910;20.390;2023-05-29T23:05:06;99353.06;;;16.94
62845;BMP280;48929;47.910;20.390;2023-05-29T23:07:58;99369.50;;;17.06
62845;BMP280;48929;47.910;20.390;2023-05-29T23:10:43;99348.13;;;17.01
62845;BMP280;48929;47.910;20.390;2023-05-29T23:13:22;99357.59;;;17.05
62845;BMP280;48929;47.910;20.390;2023-05-29T23:15:57;99358.22;;;17.02
62845;BMP280;48929;47.910;20.390;2023-05-29T23:18:42;99345.44;;;16.89
62845;BMP280;48929;47.910;20.390;2023-05-29T23:24:22;99357.50;;;16.93
62845;BMP280;48929;47.910;20.390;2023-05-29T23:27:17;99346.72;;;16.82
62845;BMP280;48929;47.910;20.390;2023-05-29T23:33:24;99362.22;;;16.79
62845;BMP280;48929;47.910;20.390;2023-05-29T23:35:53;99350.44;;;16.52
62845;BMP280;48929;47.910;20.390;2023-05-29T23:38:27;99358.63;;;16.63
62845;BMP280;48929;47.910;20.390;2023-05-29T23:41:05;99365.09;;;16.57
62845;BMP280;48929;47.910;20.390;2023-05-29T23:44:08;99358.88;;;16.49
62845;BMP280;48929;47.910;20.390;2023-05-29T23:46:46;99352.16;;;16.39